createdAt,value
2023-01-17T00:00:03.919Z,97773.95
2023-01-17T00:02:35.992Z,97769.51
2023-01-17T00:05:28.168Z,97767.06
2023-01-17T00:08:17.555Z,97757.11
2023-01-17T00:10:49.504Z,97754.53
2023-01-17T00:13:21.384Z,97744.02
2023-01-17T00:15:53.519Z,97738.29
2023-01-17T00:18:25.396Z,97727.52
2023-01-17T00:21:26.691Z,97719.77
2023-01-17T00:24:16.145Z,97716.98
2023-01-17T00:27:02.188Z,97703.73
2023-01-17T00:29:32.845Z,97701.69
2023-01-17T00:32:03.803Z,97699.38
2023-01-17T00:34:34.516Z,97695.18
2023-01-17T00:37:05.305Z,97698.83
2023-01-17T00:39:36.061Z,97715.27
2023-01-17T00:42:06.871Z,97717.91
2023-01-17T00:44:56.086Z,97709.84
2023-01-17T00:47:45.549Z,97714.64
2023-01-17T00:50:42.069Z,97706.01
2023-01-17T00:53:31.813Z,97704.69
2023-01-17T00:56:22.741Z,97703.05
2023-01-17T00:59:14.389Z,97696.00
2023-01-17T01:02:03.973Z,97686.77
2023-01-17T01:04:53.651Z,97686.16
2023-01-17T01:07:43.327Z,97679.19
2023-01-17T01:10:37.200Z,97677.41
2023-01-17T01:13:26.531Z,97673.23
2023-01-17T01:16:17.858Z,97670.63
2023-01-17T01:19:05.991Z,97669.10
2023-01-17T01:21:55.661Z,97658.04
2023-01-17T01:24:45.398Z,97655.39
2023-01-17T01:27:34.991Z,97659.15
2023-01-17T01:30:32.279Z,97661.31
2023-01-17T01:33:21.115Z,97653.38
2023-01-17T01:35:55.098Z,97655.23
2023-01-17T01:38:27.867Z,97648.60
2023-01-17T01:40:59.726Z,97644.02
2023-01-17T01:43:46.865Z,97634.77
2023-01-17T01:46:22.003Z,97626.86
2023-01-17T01:48:57.859Z,97613.02
2023-01-17T01:51:34.814Z,97603.25
2023-01-17T01:54:12.796Z,97603.38
2023-01-17T01:56:46.449Z,97607.35
2023-01-17T01:59:21.384Z,97600.98
2023-01-17T02:01:57.056Z,97600.71
2023-01-17T02:04:30.554Z,97598.27
2023-01-17T02:07:08.453Z,97594.61
2023-01-17T02:09:40.588Z,97590.19
2023-01-17T02:12:13.471Z,97586.46
2023-01-17T02:14:45.373Z,97585.95
2023-01-17T02:17:31.243Z,97586.13
2023-01-17T02:20:32.245Z,97590.73
2023-01-17T02:23:34.371Z,97583.21
2023-01-17T02:26:46.063Z,97578.11
2023-01-17T02:29:58.615Z,97573.29
2023-01-17T02:32:39.501Z,97564.71
2023-01-17T02:35:21.676Z,97563.23
2023-01-17T02:38:04.392Z,97565.67
2023-01-17T02:40:40.806Z,97572.83
2023-01-17T02:43:15.876Z,97574.98
2023-01-17T02:45:47.719Z,97586.10
2023-01-17T02:48:25.844Z,97581.06
2023-01-17T02:51:12.818Z,97577.19
2023-01-17T02:53:54.123Z,97577.05
2023-01-17T02:56:41.731Z,97575.81
2023-01-17T02:59:26.494Z,97577.39
2023-01-17T03:02:08.577Z,97573.16
2023-01-17T03:04:48.824Z,97573.73
2023-01-17T03:07:25.569Z,97570.25
2023-01-17T03:10:02.023Z,97563.77
2023-01-17T03:12:38.782Z,97563.38
2023-01-17T03:15:16.133Z,97560.66
2023-01-17T03:17:51.539Z,97565.64
2023-01-17T03:20:27.868Z,97562.73
2023-01-17T03:22:59.699Z,97559.98
2023-01-17T03:25:32.343Z,97565.30
2023-01-17T03:28:04.168Z,97567.14
2023-01-17T03:30:36.049Z,97563.19
2023-01-17T03:33:07.956Z,97556.77
2023-01-17T03:35:39.822Z,97557.73
2023-01-17T03:38:11.695Z,97556.37
2023-01-17T03:40:43.887Z,97557.15
2023-01-17T03:43:15.806Z,97556.48
2023-01-17T03:45:49.781Z,97555.11
2023-01-17T03:48:22.368Z,97559.66
2023-01-17T03:50:54.495Z,97557.48
2023-01-17T03:53:26.700Z,97548.70
2023-01-17T03:55:58.536Z,97548.09
2023-01-17T03:58:30.370Z,97544.64
2023-01-17T04:01:02.420Z,97549.66
2023-01-17T04:03:34.452Z,97549.85
2023-01-17T04:06:06.875Z,97546.91
2023-01-17T04:08:38.748Z,97546.50
2023-01-17T04:11:10.710Z,97538.98
2023-01-17T04:13:42.586Z,97542.18
2023-01-17T04:16:18.286Z,97534.23
2023-01-17T04:18:50.190Z,97529.70
2023-01-17T04:21:22.084Z,97524.06
2023-01-17T04:23:53.921Z,97527.46
2023-01-17T04:26:25.791Z,97526.05
2023-01-17T04:28:57.583Z,97522.16
2023-01-17T04:31:29.742Z,97516.75
2023-01-17T04:34:01.885Z,97520.20
2023-01-17T04:36:34.182Z,97520.47
2023-01-17T04:39:06.680Z,97517.88
2023-01-17T04:41:39.096Z,97522.92
2023-01-17T04:44:10.964Z,97516.05
2023-01-17T04:46:42.914Z,97514.66
2023-01-17T04:49:14.762Z,97518.46
2023-01-17T04:51:46.683Z,97521.40
2023-01-17T04:54:18.624Z,97517.08
2023-01-17T04:56:50.495Z,97524.20
2023-01-17T04:59:22.390Z,97527.61
2023-01-17T05:01:54.728Z,97534.67
2023-01-17T05:04:26.780Z,97536.52
2023-01-17T05:06:58.646Z,97537.60
2023-01-17T05:09:30.486Z,97546.42
2023-01-17T05:12:02.379Z,97543.58
2023-01-17T05:14:34.606Z,97543.90
2023-01-17T05:17:06.553Z,97546.88
2023-01-17T05:19:38.679Z,97545.58
2023-01-17T05:22:15.961Z,97546.27
2023-01-17T05:24:49.162Z,97556.86
2023-01-17T05:27:21.022Z,97550.38
2023-01-17T05:29:53.439Z,97545.58
2023-01-17T05:32:25.313Z,97547.02
2023-01-17T05:34:57.118Z,97547.42
2023-01-17T05:37:28.986Z,97550.77
2023-01-17T05:40:00.925Z,97556.77
2023-01-17T05:42:32.863Z,97556.94
2023-01-17T05:45:04.808Z,97559.43
2023-01-17T05:47:36.673Z,97559.53
2023-01-17T05:50:18.473Z,97558.49
2023-01-17T05:52:54.804Z,97561.98
2023-01-17T05:55:27.568Z,97564.67
2023-01-17T05:57:59.873Z,97568.60
2023-01-17T06:00:32.883Z,97571.55
2023-01-17T06:03:05.402Z,97569.88
2023-01-17T06:05:37.442Z,97573.51
2023-01-17T06:08:11.349Z,97575.36
2023-01-17T06:10:43.211Z,97577.77
2023-01-17T06:13:20.919Z,97578.59
2023-01-17T06:15:52.796Z,97583.00
2023-01-17T06:18:24.784Z,97586.05
2023-01-17T06:20:56.815Z,97582.30
2023-01-17T06:23:29.423Z,97588.77
2023-01-17T06:26:05.020Z,97595.07
2023-01-17T06:28:37.013Z,97592.38
2023-01-17T06:31:12.209Z,97590.69
2023-01-17T06:33:44.417Z,97593.92
2023-01-17T06:36:16.355Z,97594.70
2023-01-17T06:38:50.662Z,97593.08
2023-01-17T06:41:23.328Z,97596.88
2023-01-17T06:43:56.993Z,97600.41
2023-01-17T06:46:28.952Z,97598.40
2023-01-17T06:49:00.968Z,97600.80
2023-01-17T06:51:32.828Z,97599.59
2023-01-17T06:54:04.769Z,97604.74
2023-01-17T06:56:36.768Z,97605.73
2023-01-17T06:59:10.217Z,97607.82
2023-01-17T07:01:42.598Z,97613.16
2023-01-17T07:04:14.533Z,97616.77
2023-01-17T07:06:46.399Z,97620.99
2023-01-17T07:09:18.620Z,97616.27
2023-01-17T07:11:51.948Z,97618.67
2023-01-17T07:14:24.019Z,97618.32
2023-01-17T07:16:56.067Z,97621.48
2023-01-17T07:19:28.111Z,97624.86
2023-01-17T07:21:59.961Z,97629.33
2023-01-17T07:24:32.904Z,97630.77
2023-01-17T07:27:04.887Z,97633.27
2023-01-17T07:29:36.786Z,97638.05
2023-01-17T07:32:09.008Z,97637.05
2023-01-17T07:34:40.983Z,97638.51
2023-01-17T07:37:15.090Z,97637.81
2023-01-17T07:39:47.307Z,97639.41
2023-01-17T07:42:19.333Z,97644.88
2023-01-17T07:44:51.287Z,97642.77
2023-01-17T07:47:24.840Z,97646.66
2023-01-17T07:49:56.806Z,97644.33
2023-01-17T07:52:28.790Z,97645.77
2023-01-17T07:55:00.757Z,97650.92
2023-01-17T07:57:32.920Z,97652.95
2023-01-17T08:00:17.295Z,97657.98
2023-01-17T08:02:49.893Z,97659.05
2023-01-17T08:05:21.888Z,97663.38
2023-01-17T08:07:54.382Z,97666.29
2023-01-17T08:10:33.219Z,97668.02
2023-01-17T08:13:05.259Z,97675.56
2023-01-17T08:15:37.152Z,97676.40
2023-01-17T08:18:09.135Z,97675.61
2023-01-17T08:20:42.668Z,97676.35
2023-01-17T08:23:14.763Z,97675.77
2023-01-17T08:25:46.608Z,97678.69
2023-01-17T08:28:19.855Z,97683.30
2023-01-17T08:30:51.840Z,97689.58
2023-01-17T08:33:23.726Z,97692.05
2023-01-17T08:35:56.031Z,97695.85
2023-01-17T08:38:28.026Z,97695.27
2023-01-17T08:41:02.858Z,97696.89
2023-01-17T08:43:34.750Z,97697.73
2023-01-17T08:46:07.156Z,97702.70
2023-01-17T08:48:39.078Z,97706.73
2023-01-17T08:51:12.045Z,97712.46
2023-01-17T08:53:43.991Z,97719.43
2023-01-17T08:56:16.168Z,97719.95
2023-01-17T08:58:48.083Z,97722.02
2023-01-17T09:01:20.563Z,97726.33
2023-01-17T09:03:52.729Z,97728.12
2023-01-17T09:06:25.323Z,97737.47
2023-01-17T09:08:57.278Z,97741.05
2023-01-17T09:11:29.333Z,97749.63
2023-01-17T09:14:02.097Z,97759.34
2023-01-17T09:16:34.689Z,97764.83
2023-01-17T09:19:06.590Z,97772.89
2023-01-17T09:21:38.764Z,97776.20
2023-01-17T09:24:12.559Z,97784.81
2023-01-17T09:26:44.590Z,97787.27
2023-01-17T09:29:17.976Z,97787.73
2023-01-17T09:31:50.071Z,97789.50
2023-01-17T09:34:23.694Z,97788.23
2023-01-17T09:36:57.108Z,97791.92
2023-01-17T09:39:30.923Z,97795.01
2023-01-17T09:42:10.072Z,97792.98
2023-01-17T09:44:47.195Z,97791.27
2023-01-17T09:47:29.734Z,97797.09
2023-01-17T09:50:16.346Z,97801.21
2023-01-17T09:52:48.711Z,97801.34
2023-01-17T09:55:21.246Z,97801.06
2023-01-17T10:01:48.518Z,97793.55
2023-01-17T10:04:39.269Z,97795.73
2023-01-17T10:07:20.766Z,97791.16
2023-01-17T10:10:05.255Z,97797.52
2023-01-17T10:12:52.014Z,97800.77
2023-01-17T10:15:40.277Z,97801.70
2023-01-17T10:18:31.120Z,97801.02
2023-01-17T10:21:44.227Z,97804.69
2023-01-17T10:24:40.011Z,97805.05
2023-01-17T10:27:21.522Z,97804.01
2023-01-17T10:29:54.479Z,97802.14
2023-01-17T10:32:30.802Z,97804.19
2023-01-17T10:35:14.197Z,97801.77
2023-01-17T10:37:47.808Z,97802.96
2023-01-17T10:40:29.241Z,97807.23
2023-01-17T10:43:06.202Z,97813.21
2023-01-17T10:45:43.735Z,97815.19
2023-01-17T10:48:23.237Z,97817.98
2023-01-17T10:51:02.636Z,97816.84
2023-01-17T10:53:46.875Z,97823.10
2023-01-17T10:56:28.099Z,97823.96
2023-01-17T10:59:27.441Z,97825.84
2023-01-17T11:01:59.907Z,97827.02
2023-01-17T11:04:38.083Z,97825.84
2023-01-17T11:07:16.282Z,97828.42
2023-01-17T11:09:49.904Z,97833.71
2023-01-17T11:12:28.144Z,97831.52
2023-01-17T11:15:34.521Z,97834.85
2023-01-17T11:18:19.945Z,97840.98
2023-01-17T11:20:52.052Z,97836.80
2023-01-17T11:23:30.857Z,97839.92
2023-01-17T11:26:04.832Z,97838.73
2023-01-17T11:28:37.996Z,97841.23
2023-01-17T11:31:26.684Z,97843.03
2023-01-17T11:34:17.545Z,97840.25
2023-01-17T11:36:50.327Z,97839.59
2023-01-17T11:39:28.409Z,97837.48
2023-01-17T11:42:00.432Z,97839.88
2023-01-17T11:44:34.225Z,97841.52
2023-01-17T11:47:19.421Z,97837.69
2023-01-17T11:49:52.177Z,97843.87
2023-01-17T11:52:32.909Z,97848.02
2023-01-17T11:55:07.118Z,97846.80
2023-01-17T11:58:00.116Z,97848.92
2023-01-17T12:00:39.037Z,97847.95
2023-01-17T12:03:22.263Z,97848.23
2023-01-17T12:06:02.923Z,97847.61
2023-01-17T12:12:14.923Z,97848.30
2023-01-17T12:15:01.104Z,97847.77
2023-01-17T12:17:51.689Z,97853.52
2023-01-17T12:20:35.590Z,97854.24
2023-01-17T12:23:28.929Z,97855.55
2023-01-17T12:26:19.592Z,97854.48
2023-01-17T12:29:21.584Z,97857.30
2023-01-17T12:32:00.533Z,97852.33
2023-01-17T12:34:35.594Z,97854.13
2023-01-17T12:37:19.146Z,97859.83
2023-01-17T12:39:55.055Z,97859.73
2023-01-17T12:42:30.957Z,97865.48
2023-01-17T12:45:08.828Z,97867.09
2023-01-17T12:47:48.338Z,97865.08
2023-01-17T12:50:27.585Z,97863.36
2023-01-17T12:53:05.742Z,97868.74
2023-01-17T12:55:42.769Z,97869.56
2023-01-17T12:58:21.130Z,97874.16
2023-01-17T13:01:00.808Z,97878.05
2023-01-17T13:03:44.780Z,97881.48
2023-01-17T13:06:23.268Z,97892.93
2023-01-17T13:09:02.102Z,97890.77
2023-01-17T13:11:41.366Z,97897.02
2023-01-17T13:14:13.573Z,97899.41
2023-01-17T13:16:50.171Z,97901.34
2023-01-17T13:19:32.595Z,97904.02
2023-01-17T13:22:08.605Z,97906.18
2023-01-17T13:24:50.830Z,97912.86
2023-01-17T13:28:02.929Z,97920.40
2023-01-17T13:31:09.733Z,97925.36
2023-01-17T13:34:10.267Z,97927.64
2023-01-17T13:36:57.167Z,97935.56
2023-01-17T13:39:46.879Z,97930.48
2023-01-17T13:42:30.600Z,97943.64
2023-01-17T13:45:07.825Z,97945.56
2023-01-17T13:47:42.798Z,97951.77
2023-01-17T13:50:50.671Z,97952.19
2023-01-17T13:53:56.952Z,97951.88
2023-01-17T13:56:36.497Z,97954.02
2023-01-17T13:59:31.016Z,97957.77
2023-01-17T14:02:02.959Z,97962.95
2023-01-17T14:05:09.416Z,97964.62
2023-01-17T14:07:47.828Z,97965.21
2023-01-17T14:10:29.699Z,97970.38
2023-01-17T14:13:01.913Z,97980.27
2023-01-17T14:15:36.719Z,97980.13
2023-01-17T14:18:30.717Z,97986.11
2023-01-17T14:21:20.358Z,97984.87
2023-01-17T14:23:57.416Z,97987.58
2023-01-17T14:26:37.796Z,97994.36
2023-01-17T14:29:44.434Z,98005.88
2023-01-17T14:32:18.728Z,98008.82
2023-01-17T14:34:53.330Z,98021.02
2023-01-17T14:37:34.373Z,98026.73
2023-01-17T14:40:19.092Z,98036.42
2023-01-17T14:43:02.731Z,98038.17
2023-01-17T14:45:36.957Z,98043.69
2023-01-17T14:48:16.667Z,98048.42
2023-01-17T14:50:50.217Z,98043.44
2023-01-17T14:53:28.263Z,98049.34
2023-01-17T14:56:03.054Z,98050.92
2023-01-17T14:58:36.639Z,98053.50
2023-01-17T15:01:13.484Z,98061.75
2023-01-17T15:03:48.205Z,98065.65
2023-01-17T15:06:22.829Z,98070.48
2023-01-17T15:08:55.106Z,98071.88
2023-01-17T15:11:29.839Z,98078.34
2023-01-17T15:14:06.019Z,98080.06
2023-01-17T15:16:41.202Z,98086.92
2023-01-17T15:19:15.533Z,98087.89
2023-01-17T15:21:50.661Z,98090.17
2023-01-17T15:24:25.287Z,98091.71
2023-01-17T15:26:57.453Z,98098.91
2023-01-17T15:29:33.424Z,98104.53
2023-01-17T15:32:07.086Z,98103.98
2023-01-17T15:34:40.776Z,98110.71
2023-01-17T15:37:28.564Z,98116.64
2023-01-17T15:40:18.829Z,98123.48
2023-01-17T15:43:01.082Z,98129.84
2023-01-17T15:45:36.357Z,98132.70
2023-01-17T15:48:33.305Z,98142.72
2023-01-17T15:51:05.228Z,98146.24
2023-01-17T15:53:40.173Z,98150.11
2023-01-17T15:56:31.046Z,98155.58
2023-01-17T15:59:29.930Z,98156.86
2023-01-17T16:02:02.029Z,98155.75
2023-01-17T16:04:37.665Z,98158.14
2023-01-17T16:07:19.666Z,98163.77
2023-01-17T16:09:52.475Z,98168.39
2023-01-17T16:12:24.367Z,98168.11
2023-01-17T16:15:11.139Z,98173.45
2023-01-17T16:17:47.384Z,98179.13
2023-01-17T16:20:30.420Z,98176.28
2023-01-17T16:23:02.784Z,98185.06
2023-01-17T16:25:34.645Z,98184.11
2023-01-17T16:28:08.424Z,98187.23
2023-01-17T16:30:40.665Z,98187.19
2023-01-17T16:33:14.098Z,98188.57
2023-01-17T16:35:46.064Z,98188.77
2023-01-17T16:38:19.923Z,98189.75
2023-01-17T16:40:51.943Z,98193.52
2023-01-17T16:43:24.197Z,98192.77
2023-01-17T16:45:56.101Z,98195.81
2023-01-17T16:48:28.197Z,98187.83
2023-01-17T16:51:00.181Z,98189.85
2023-01-17T16:53:31.973Z,98188.81
2023-01-17T16:56:13.742Z,98188.09
2023-01-17T16:58:45.749Z,98184.36
2023-01-17T17:01:21.420Z,98184.64
2023-01-17T17:03:53.417Z,98188.15
2023-01-17T17:06:25.304Z,98194.43
2023-01-17T17:08:57.214Z,98191.21
2023-01-17T17:11:29.178Z,98187.17
2023-01-17T17:14:01.072Z,98188.38
2023-01-17T17:16:34.142Z,98188.80
2023-01-17T17:19:07.977Z,98184.70
2023-01-17T17:21:39.883Z,98185.16
2023-01-17T17:24:15.196Z,98184.86
2023-01-17T17:26:47.403Z,98186.49
2023-01-17T17:29:19.334Z,98191.75
2023-01-17T17:31:52.040Z,98193.20
2023-01-17T17:34:26.003Z,98191.11
2023-01-17T17:36:57.878Z,98197.30
2023-01-17T17:39:30.248Z,98202.45
2023-01-17T17:42:02.446Z,98203.16
2023-01-17T17:44:34.770Z,98204.20
2023-01-17T17:47:06.813Z,98202.50
2023-01-17T17:49:38.707Z,98201.55
2023-01-17T17:52:11.204Z,98198.00
2023-01-17T17:54:43.969Z,98194.80
2023-01-17T17:57:16.056Z,98190.10
2023-01-17T17:59:47.937Z,98188.09
2023-01-17T18:02:19.832Z,98186.06
2023-01-17T18:04:52.480Z,98190.16
2023-01-17T18:07:24.428Z,98193.88
2023-01-17T18:09:56.304Z,98196.30
2023-01-17T18:12:28.291Z,98190.05
2023-01-17T18:15:00.695Z,98193.95
2023-01-17T18:17:32.993Z,98201.73
2023-01-17T18:20:07.627Z,98204.85
2023-01-17T18:22:40.115Z,98213.92
2023-01-17T18:25:12.801Z,98218.01
2023-01-17T18:27:46.704Z,98220.76
2023-01-17T18:30:28.447Z,98224.81
2023-01-17T18:33:00.336Z,98229.66
2023-01-17T18:35:32.358Z,98233.79
2023-01-17T18:38:04.415Z,98235.19
2023-01-17T18:40:38.223Z,98238.00
2023-01-17T18:43:10.300Z,98244.05
2023-01-17T18:45:42.323Z,98247.83
2023-01-17T18:48:14.231Z,98254.91
2023-01-17T18:50:55.209Z,98258.98
2023-01-17T18:53:27.475Z,98268.91
2023-01-17T18:56:02.428Z,98265.66
2023-01-17T18:58:39.185Z,98268.61
2023-01-17T19:01:13.913Z,98275.09
2023-01-17T19:03:47.777Z,98278.69
2023-01-17T19:06:22.210Z,98277.94
2023-01-17T19:08:54.200Z,98286.45
2023-01-17T19:11:27.634Z,98290.73
2023-01-17T19:13:59.622Z,98294.77
2023-01-17T19:16:34.833Z,98298.84
2023-01-17T19:19:09.437Z,98300.71
2023-01-17T19:21:41.327Z,98298.48
2023-01-17T19:24:14.362Z,98294.98
2023-01-17T19:26:47.828Z,98294.83
2023-01-17T19:29:19.812Z,98296.34
2023-01-17T19:31:51.818Z,98291.64
2023-01-17T19:34:23.778Z,98294.54
2023-01-17T19:36:56.431Z,98293.09
2023-01-17T19:39:30.614Z,98288.68
2023-01-17T19:42:02.473Z,98285.66
2023-01-17T19:44:34.620Z,98283.13
2023-01-17T19:47:06.564Z,98277.48
2023-01-17T19:49:40.301Z,98276.91
2023-01-17T19:52:12.917Z,98278.90
2023-01-17T19:54:44.956Z,98280.52
2023-01-17T19:57:17.980Z,98284.04
2023-01-17T19:59:49.960Z,98289.97
2023-01-17T20:02:22.108Z,98284.19
2023-01-17T20:04:54.229Z,98284.45
2023-01-17T20:07:26.311Z,98284.30
2023-01-17T20:09:58.707Z,98281.21
2023-01-17T20:12:31.510Z,98280.65
2023-01-17T20:15:03.902Z,98282.71
2023-01-17T20:17:36.056Z,98279.90
2023-01-17T20:20:16.270Z,98282.21
2023-01-17T20:22:48.427Z,98281.69
2023-01-17T20:25:20.626Z,98283.70
2023-01-17T20:27:52.710Z,98285.85
2023-01-17T20:30:33.047Z,98288.83
2023-01-17T20:33:05.512Z,98289.06
2023-01-17T20:35:37.453Z,98295.15
2023-01-17T20:38:10.727Z,98297.30
2023-01-17T20:40:43.032Z,98302.84
2023-01-17T20:43:15.165Z,98305.47
2023-01-17T20:45:47.427Z,98311.07
2023-01-17T20:48:20.860Z,98320.85
2023-01-17T20:50:53.601Z,98327.28
2023-01-17T20:53:25.650Z,98323.79
2023-01-17T20:55:59.615Z,98331.20
2023-01-17T20:58:32.103Z,98334.77
2023-01-17T21:01:04.748Z,98339.84
2023-01-17T21:03:37.982Z,98343.92
2023-01-17T21:10:17.769Z,98356.39
2023-01-17T21:12:49.909Z,98366.11
2023-01-17T21:15:22.131Z,98366.39
2023-01-17T21:17:55.027Z,98359.27
2023-01-17T21:20:34.500Z,98360.45
2023-01-17T21:23:08.722Z,98364.50
2023-01-17T21:25:41.062Z,98367.18
2023-01-17T21:28:13.160Z,98370.86
2023-01-17T21:30:45.990Z,98370.42
2023-01-17T21:33:18.375Z,98371.45
2023-01-17T21:35:50.986Z,98370.02
2023-01-17T21:38:23.289Z,98370.30
2023-01-17T21:40:59.380Z,98372.61
2023-01-17T21:43:32.277Z,98385.75
2023-01-17T21:46:05.923Z,98388.56
2023-01-17T21:48:39.494Z,98395.02
2023-01-17T21:51:11.898Z,98401.21
2023-01-17T21:53:44.285Z,98409.54
2023-01-17T21:56:34.213Z,98414.07
2023-01-17T21:59:06.663Z,98418.84
2023-01-17T22:01:38.740Z,98419.33
2023-01-17T22:04:13.336Z,98423.28
2023-01-17T22:06:45.459Z,98424.29
2023-01-17T22:09:17.857Z,98421.77
2023-01-17T22:11:50.025Z,98426.10
2023-01-17T22:14:22.387Z,98424.23
2023-01-17T22:16:55.030Z,98422.80
2023-01-17T22:19:27.356Z,98422.20
2023-01-17T22:21:59.554Z,98415.78
2023-01-17T22:24:31.757Z,98411.81
2023-01-17T22:27:03.975Z,98405.99
2023-01-17T22:29:36.579Z,98401.10
2023-01-17T22:32:10.383Z,98396.77
2023-01-17T22:34:43.125Z,98393.66
2023-01-17T22:37:15.491Z,98386.20
2023-01-17T22:39:47.659Z,98376.17
2023-01-17T22:42:20.161Z,98363.09
2023-01-17T22:44:52.401Z,98361.09
2023-01-17T22:47:24.664Z,98357.34
2023-01-17T22:49:56.870Z,98359.02
2023-01-17T22:52:29.133Z,98361.31
2023-01-17T22:55:01.628Z,98363.41
2023-01-17T22:57:34.119Z,98356.44
2023-01-17T23:00:15.151Z,98356.11
2023-01-17T23:02:47.485Z,98348.08
2023-01-17T23:05:20.579Z,98341.61
2023-01-17T23:07:53.797Z,98338.46
2023-01-17T23:10:50.713Z,98341.76
2023-01-17T23:13:22.960Z,98344.98
2023-01-17T23:16:12.752Z,98343.04
2023-01-17T23:19:02.499Z,98339.88
2023-01-17T23:21:48.708Z,98334.85
2023-01-17T23:24:20.810Z,98337.26
2023-01-17T23:27:06.635Z,98339.84
2023-01-17T23:29:38.854Z,98342.93
2023-01-17T23:32:11.027Z,98334.96
2023-01-17T23:34:43.041Z,98326.38
2023-01-17T23:37:15.094Z,98332.16
2023-01-17T23:39:47.453Z,98333.98
2023-01-17T23:42:37.062Z,98330.66
2023-01-17T23:45:10.913Z,98327.19
2023-01-17T23:47:45.626Z,98329.23
2023-01-17T23:50:26.416Z,98328.05
2023-01-17T23:52:58.906Z,98332.46
2023-01-17T23:55:31.210Z,98332.55
2023-01-17T23:58:03.791Z,98333.55
